Time;durP1;ratioP1;P1;durP2;ratioP2;P2;SDS_P1;SDS_P2;PMS_P1;PMS_P2;Temp;Humidity;BMP_temperature;BMP_pressure;BME280_temperature;BME280_humidity;BME280_pressure;Samples;Min_cycle;Max_cycle;Signal;HPM_P1;HPM_P2
2023/05/21 00:00:42;;;;;;;4.10;2.47;;;;;;;13.57;100.00;102279.66;5003691;28;20567;-70
2023/05/21 00:03:12;;;;;;;3.17;2.60;;;;;;;13.65;100.00;102276.00;4999272;28;20683;-69
2023/05/21 00:05:39;;;;;;;3.70;2.50;;;;;;;13.21;100.00;102189.69;5001360;28;20184;-70
2023/05/21 00:08:04;;;;;;;3.00;2.47;;;;;;;13.33;100.00;102186.38;5003894;28;21086;-71
2023/05/21 00:10:30;;;;;;;3.77;2.60;;;;;;;13.74;100.00;102257.88;5004048;28;20861;-71
2023/05/21 00:12:55;;;;;;;3.53;2.67;;;;;;;13.02;100.00;102132.63;5001830;28;20186;-71
2023/05/21 00:15:21;;;;;;;3.17;2.87;;;;;;;13.21;100.00;102187.81;5000459;28;20662;-71
2023/05/21 00:17:46;;;;;;;3.33;2.90;;;;;;;13.19;100.00;102181.78;5001343;28;20596;-71
2023/05/21 00:20:12;;;;;;;3.43;3.07;;;;;;;13.32;100.00;102217.03;5000097;28;20670;-69
2023/05/21 00:22:37;;;;;;;4.60;2.60;;;;;;;13.49;100.00;102238.47;4998720;28;20649;-70
2023/05/21 00:25:03;;;;;;;3.73;3.00;;;;;;;13.50;100.00;102235.56;5004016;28;20212;-70
2023/05/21 00:27:28;;;;;;;4.93;3.20;;;;;;;13.18;100.00;102234.00;5001392;28;20208;-70
2023/05/21 00:29:54;;;;;;;5.27;3.13;;;;;;;12.80;100.00;102277.03;5000712;28;20428;-70
2023/05/21 00:32:20;;;;;;;4.90;3.10;;;;;;;13.10;100.00;102269.06;5000250;28;20184;-71
2023/05/21 00:34:46;;;;;;;3.40;2.90;;;;;;;12.75;100.00;102212.09;4993179;28;20253;-70
2023/05/21 00:37:14;;;;;;;3.77;2.90;;;;;;;13.21;100.00;102275.91;4998434;28;20194;-70
2023/05/21 00:39:39;;;;;;;3.60;3.07;;;;;;;12.24;100.00;102154.44;4996614;28;20445;-70
2023/05/21 00:42:05;;;;;;;6.47;3.27;;;;;;;12.35;100.00;102206.00;5006171;28;21153;-69
2023/05/21 00:44:34;;;;;;;3.03;2.63;;;;;;;12.53;100.00;102270.31;5016098;28;20220;-70
2023/05/21 00:47:03;;;;;;;5.47;2.70;;;;;;;12.97;100.00;102287.72;5006398;28;20315;-70
2023/05/21 00:49:30;;;;;;;3.63;3.33;;;;;;;12.60;100.00;102268.56;5005950;28;20523;-69
2023/05/21 00:51:56;;;;;;;2.97;2.63;;;;;;;12.60;100.00;102224.69;5006378;28;20436;-70
2023/05/21 00:54:22;;;;;;;4.30;3.30;;;;;;;12.89;100.00;102275.13;5007225;28;20482;-70
2023/05/21 00:56:49;;;;;;;4.50;3.13;;;;;;;12.13;100.00;102171.81;5005141;28;20464;-70
2023/05/21 00:59:15;;;;;;;3.53;3.23;;;;;;;12.63;100.00;102202.78;5006608;28;20436;-70
2023/05/21 01:01:44;;;;;;;7.80;3.20;;;;;;;12.44;100.00;102180.72;5012243;28;20425;-70
2023/05/21 01:04:10;;;;;;;3.30;2.87;;;;;;;12.12;100.00;102105.59;5008550;28;20448;-70
2023/05/21 01:06:36;;;;;;;5.27;3.23;;;;;;;12.49;100.00;102163.19;5006513;28;20431;-70
2023/05/21 01:09:04;;;;;;;3.70;3.00;;;;;;;12.88;100.00;102257.31;5007586;28;20447;-71
2023/05/21 01:11:47;;;;;;;3.07;2.77;;;;;;;11.92;100.00;102102.53;4998487;28;20528;-70
2023/05/21 01:14:14;;;;;;;4.50;2.80;;;;;;;12.52;100.00;102169.03;5005209;28;20475;-69
2023/05/21 01:16:42;;;;;;;4.60;3.20;;;;;;;12.46;100.00;102188.59;5004061;28;20803;-70
2023/05/21 01:19:12;;;;;;;4.73;3.80;;;;;;;12.96;100.00;102232.16;5000613;28;20502;-70
2023/05/21 01:21:43;;;;;;;5.00;3.50;;;;;;;12.58;100.00;102253.63;5019439;28;20436;-69
2023/05/21 01:24:09;;;;;;;3.77;3.00;;;;;;;11.97;100.00;102145.84;5014650;28;21315;-70
2023/05/21 01:26:37;;;;;;;4.20;3.30;;;;;;;12.89;100.00;102240.13;5001297;28;20452;-70
2023/05/21 01:29:05;;;;;;;7.37;3.30;;;;;;;11.54;100.00;102111.25;5008139;28;20276;-70
2023/05/21 01:31:57;;;;;;;4.33;3.13;;;;;;;12.71;100.00;102253.06;5002654;28;20469;-70
2023/05/21 01:34:31;;;;;;;5.80;3.27;;;;;;;12.25;100.00;102154.25;5004418;28;20895;-70
2023/05/21 01:37:09;;;;;;;3.83;2.97;;;;;;;12.16;100.00;102179.53;5005835;28;20454;-70
2023/05/21 01:39:38;;;;;;;3.60;3.10;;;;;;;12.80;100.00;102260.03;5020731;28;20448;-70
2023/05/21 01:42:09;;;;;;;4.73;3.40;;;;;;;12.19;100.00;102185.41;5006905;28;20444;-70
2023/05/21 01:44:35;;;;;;;4.30;3.30;;;;;;;12.69;100.00;102247.00;5005278;28;20476;-70
2023/05/21 01:47:02;;;;;;;4.90;2.97;;;;;;;12.72;100.00;102250.16;5002451;28;20439;-70
2023/05/21 01:49:28;;;;;;;8.50;3.07;;;;;;;12.33;100.00;102159.59;5004945;28;20474;-70
2023/05/21 01:51:54;;;;;;;4.43;3.07;;;;;;;12.92;100.00;102237.06;5005967;28;20550;-70
2023/05/21 01:54:20;;;;;;;4.10;3.20;;;;;;;12.91;100.00;102213.03;5001414;28;20985;-70
2023/05/21 01:56:48;;;;;;;6.30;3.80;;;;;;;12.66;100.00;102186.28;5009080;28;20193;-70
2023/05/21 01:59:15;;;;;;;4.03;3.03;;;;;;;12.85;100.00;102226.19;4997817;28;20444;-70
2023/05/21 02:01:41;;;;;;;6.40;3.10;;;;;;;12.58;100.00;102207.84;5000249;28;20543;-70
2023/05/21 02:04:07;;;;;;;3.97;3.30;;;;;;;12.61;100.00;102168.00;5004948;28;20940;-70
2023/05/21 02:06:34;;;;;;;5.90;3.70;;;;;;;12.87;100.00;102216.09;5005186;28;20193;-70
2023/05/21 02:09:00;;;;;;;5.13;3.33;;;;;;;12.74;100.00;102233.84;5002594;28;20549;-70
2023/05/21 02:11:25;;;;;;;3.30;2.73;;;;;;;13.00;100.00;102230.78;5004196;28;20424;-70
2023/05/21 02:13:51;;;;;;;6.10;3.40;;;;;;;12.84;100.00;102221.81;5004083;28;20231;-70
2023/05/21 02:16:18;;;;;;;5.50;3.40;;;;;;;12.64;100.00;102224.16;4999239;28;20701;-70
2023/05/21 02:18:43;;;;;;;4.40;3.10;;;;;;;12.11;100.00;102161.22;5008837;28;20185;-70
2023/05/21 02:21:12;;;;;;;4.70;3.40;;;;;;;12.53;100.00;102178.81;5001298;28;20453;-70
2023/05/21 02:23:37;;;;;;;4.13;2.90;;;;;;;12.95;100.00;102230.47;5002429;28;20209;-70
2023/05/21 02:26:03;;;;;;;4.03;2.70;;;;;;;12.35;100.00;102179.09;5000730;28;20989;-70
2023/05/21 02:28:29;;;;;;;6.10;2.83;;;;;;;12.49;100.00;102243.91;5002326;28;20200;-70
2023/05/21 02:30:55;;;;;;;4.60;2.97;;;;;;;12.26;100.00;102160.47;4999924;28;20193;-70
2023/05/21 02:33:20;;;;;;;4.10;2.70;;;;;;;12.82;100.00;102236.47;4996371;28;20208;-70
2023/05/21 02:35:46;;;;;;;5.30;3.10;;;;;;;12.29;100.00;102131.34;5005151;28;20517;-70
2023/05/21 02:38:12;;;;;;;5.73;3.50;;;;;;;12.51;100.00;102155.78;5000198;28;20554;-70
2023/05/21 02:40:38;;;;;;;8.40;2.60;;;;;;;12.15;100.00;102132.13;5003331;28;20461;-69
2023/05/21 02:43:04;;;;;;;6.50;2.93;;;;;;;12.91;100.00;102210.34;5002753;28;20192;-70
2023/05/21 02:45:29;;;;;;;6.50;3.00;;;;;;;12.75;100.00;102162.81;5002296;28;20461;-70
2023/05/21 02:47:55;;;;;;;6.73;3.07;;;;;;;12.95;100.00;102172.06;5001947;28;20222;-70
2023/05/21 02:50:21;;;;;;;8.17;4.00;;;;;;;12.89;100.00;102192.47;5002541;28;20193;-70
2023/05/21 02:52:47;;;;;;;4.70;3.00;;;;;;;12.41;100.00;102126.41;5001343;28;20201;-70
2023/05/21 02:55:12;;;;;;;5.80;3.07;;;;;;;13.12;100.00;102199.69;5000585;28;20499;-71
2023/05/21 02:57:38;;;;;;;6.63;3.00;;;;;;;12.96;100.00;102206.06;5003971;28;20867;-69
2023/05/21 03:00:04;;;;;;;7.10;3.30;;;;;;;12.50;100.00;102113.72;5002616;28;20668;-70
2023/05/21 03:02:30;;;;;;;5.50;3.10;;;;;;;13.10;100.00;102197.19;5003274;28;20722;-70
2023/05/21 03:04:56;;;;;;;6.00;3.40;;;;;;;12.58;100.00;102114.53;4998441;28;20495;-70
2023/05/21 03:07:23;;;;;;;8.10;3.30;;;;;;;12.92;100.00;102174.28;5000249;28;20416;-70
2023/05/21 03:09:48;;;;;;;7.03;3.43;;;;;;;13.14;100.00;102192.28;5000552;28;20193;-70
2023/05/21 03:12:14;;;;;;;5.43;3.13;;;;;;;13.16;100.00;102179.44;5003122;28;20417;-70
2023/05/21 03:14:42;;;;;;;7.63;3.40;;;;;;;13.13;100.00;102193.28;4998881;28;20216;-70
2023/05/21 03:17:12;;;;;;;5.30;3.07;;;;;;;12.89;100.00;102200.56;5001387;28;20728;-70
2023/05/21 03:19:39;;;;;;;8.90;3.13;;;;;;;12.30;100.00;102143.81;5002247;28;20439;-70
2023/05/21 03:22:05;;;;;;;6.50;2.93;;;;;;;12.84;100.00;102199.41;5001778;28;20504;-70
2023/05/21 03:24:31;;;;;;;3.78;2.80;;;;;;;12.83;100.00;102198.59;4998762;28;20425;-69
2023/05/21 03:27:00;;;;;;;5.23;3.17;;;;;;;12.64;100.00;102140.72;5002530;28;20177;-70
2023/05/21 03:29:26;;;;;;;4.90;3.20;;;;;;;12.73;100.00;102165.72;4999582;28;20460;-70
2023/05/21 03:31:52;;;;;;;4.00;3.07;;;;;;;12.48;100.00;102103.16;4998529;28;20940;-70
2023/05/21 03:34:22;;;;;;;6.00;3.33;;;;;;;13.02;100.00;102196.44;5000159;28;20467;-70
2023/05/21 03:36:47;;;;;;;5.23;3.30;;;;;;;12.91;100.00;102189.63;5002948;28;20483;-70
2023/05/21 03:39:13;;;;;;;6.13;2.90;;;;;;;13.07;100.00;102200.22;4999942;28;20436;-70
2023/05/21 03:41:38;;;;;;;4.63;2.73;;;;;;;12.74;100.00;102148.53;4998609;28;20181;-70
2023/05/21 03:44:04;;;;;;;3.53;2.67;;;;;;;12.99;100.00;102196.78;5003749;28;20209;-70
2023/05/21 03:46:30;;;;;;;7.30;3.67;;;;;;;12.91;100.00;102186.09;5000031;28;20199;-70
2023/05/21 03:48:57;;;;;;;5.60;3.00;;;;;;;13.06;100.00;102190.47;4998095;28;20185;-70
2023/05/21 03:51:23;;;;;;;4.70;2.90;;;;;;;12.59;100.00;102126.13;5000486;28;20539;-70
2023/05/21 03:53:49;;;;;;;5.57;2.80;;;;;;;13.16;100.00;102186.69;5014287;28;20591;-70
2023/05/21 03:56:15;;;;;;;5.10;2.67;;;;;;;12.44;100.00;102121.50;4998174;28;20448;-70
2023/05/21 03:58:40;;;;;;;5.17;2.97;;;;;;;12.81;100.00;102167.47;4999644;28;20420;-70
2023/05/21 04:01:07;;;;;;;5.47;3.00;;;;;;;13.11;100.00;102198.88;5001719;28;20188;-70
2023/05/21 04:03:34;;;;;;;4.50;2.90;;;;;;;12.94;100.00;102209.97;4999336;28;20205;-70
2023/05/21 04:06:00;;;;;;;5.40;3.10;;;;;;;12.39;100.00;102126.59;5013869;28;20908;-70
2023/05/21 04:08:26;;;;;;;5.90;2.70;;;;;;;12.45;100.00;102122.34;4997395;28;20441;-70
2023/05/21 04:10:51;;;;;;;4.33;3.03;;;;;;;12.78;100.00;102149.00;5003009;28;20432;-70
2023/05/21 04:13:17;;;;;;;4.40;3.03;;;;;;;12.79;100.00;102186.53;4997531;28;20275;-69
2023/05/21 04:15:43;;;;;;;5.27;2.70;;;;;;;12.71;100.00;102178.50;5006220;28;20650;-70
2023/05/21 04:18:09;;;;;;;4.63;2.57;;;;;;;12.50;100.00;102146.88;5001412;28;20181;-70
2023/05/21 04:20:35;;;;;;;5.20;2.90;;;;;;;12.81;100.00;102206.00;5001979;28;20447;-70
2023/05/21 04:23:01;;;;;;;5.60;2.60;;;;;;;12.87;100.00;102196.38;5003954;28;20432;-70
2023/05/21 04:25:27;;;;;;;5.43;2.30;;;;;;;12.31;100.00;102123.94;4997537;28;20772;-70
2023/05/21 04:27:53;;;;;;;5.33;2.30;;;;;;;12.19;100.00;102117.31;5000453;28;20444;-70
2023/05/21 04:30:19;;;;;;;5.77;2.97;;;;;;;12.21;100.00;102116.13;4999572;28;20192;-70
2023/05/21 04:32:44;;;;;;;5.43;2.53;;;;;;;12.82;100.00;102209.56;5001399;28;20519;-70
2023/05/21 04:35:11;;;;;;;6.33;2.70;;;;;;;12.36;100.00;102148.47;4996159;28;20213;-70
2023/05/21 04:37:40;;;;;;;3.70;2.50;;;;;;;12.76;100.00;102216.50;5002391;28;20184;-70
2023/05/21 04:40:09;;;;;;;3.90;2.30;;;;;;;12.17;100.00;102104.03;5000499;28;20546;-70
2023/05/21 04:42:35;;;;;;;3.50;2.50;;;;;;;12.74;100.00;102188.91;4999520;28;20435;-70
2023/05/21 04:45:01;;;;;;;5.10;2.83;;;;;;;12.87;100.00;102197.22;4999144;28;21017;-70
2023/05/21 04:47:34;;;;;;;6.13;2.30;;;;;;;12.97;100.00;102194.28;5002297;28;20783;-70
2023/05/21 04:50:00;;;;;;;6.00;2.70;;;;;;;13.09;100.00;102189.28;5002527;28;20427;-70
2023/05/21 04:52:26;;;;;;;4.70;2.60;;;;;;;13.02;100.00;102153.34;5000964;28;20812;-70
2023/05/21 04:54:52;;;;;;;4.53;2.33;;;;;;;12.73;100.00;102138.78;5000717;28;20487;-70
2023/05/21 04:57:18;;;;;;;4.30;2.50;;;;;;;13.06;100.00;102178.88;5002839;28;20183;-70
2023/05/21 04:59:44;;;;;;;4.47;2.47;;;;;;;12.92;100.00;102132.03;5002051;28;20459;-70
2023/05/21 05:02:09;;;;;;;5.43;3.10;;;;;;;12.98;100.00;102125.91;5002842;28;20185;-70
2023/05/21 05:04:35;;;;;;;3.97;2.60;;;;;;;12.72;100.00;102085.09;5002912;28;20896;-70
2023/05/21 05:07:00;;;;;;;4.13;2.40;;;;;;;13.34;100.00;102158.41;4998641;28;20189;-70
2023/05/21 05:09:26;;;;;;;5.70;2.77;;;;;;;13.43;100.00;102158.34;5000680;28;20595;-71
2023/05/21 05:11:51;;;;;;;3.67;2.43;;;;;;;13.27;100.00;102156.63;5000334;28;20189;-70
2023/05/21 05:14:16;;;;;;;3.43;2.10;;;;;;;13.30;100.00;102150.88;5000068;28;20283;-70
2023/05/21 05:16:42;;;;;;;2.83;2.27;;;;;;;13.33;100.00;102148.66;5003404;28;20242;-71
2023/05/21 05:19:08;;;;;;;3.60;2.57;;;;;;;12.54;100.00;102063.91;5001062;28;20681;-70
2023/05/21 05:21:33;;;;;;;2.77;2.17;;;;;;;12.58;100.00;102068.75;5003189;28;20182;-71
2023/05/21 05:23:59;;;;;;;5.20;2.57;;;;;;;12.66;100.00;102057.06;5001142;28;20990;-70
2023/05/21 05:26:25;;;;;;;5.37;2.53;;;;;;;13.12;100.00;102143.13;4999457;28;20185;-71
2023/05/21 05:28:50;;;;;;;3.77;2.70;;;;;;;12.83;100.00;102092.75;5002791;28;20960;-70
2023/05/21 05:31:16;;;;;;;4.37;2.23;;;;;;;13.25;100.00;102154.16;4999172;28;20181;-71
2023/05/21 05:33:41;;;;;;;3.97;2.30;;;;;;;13.08;100.00;102106.81;5002729;28;20213;-70
2023/05/21 05:36:07;;;;;;;3.50;2.37;;;;;;;12.73;100.00;102065.22;5001786;28;20243;-71
2023/05/21 05:38:33;;;;;;;4.83;2.40;;;;;;;12.78;100.00;102081.69;5004746;28;20192;-70
2023/05/21 05:40:59;;;;;;;5.50;3.20;;;;;;;13.34;100.00;102162.97;5005647;28;20193;-70
2023/05/21 05:43:25;;;;;;;4.27;2.30;;;;;;;13.38;100.00;102158.88;5004263;28;20813;-70
2023/05/21 05:45:51;;;;;;;5.60;2.60;;;;;;;12.57;100.00;102017.78;5003694;28;20184;-70
2023/05/21 05:48:16;;;;;;;5.77;3.00;;;;;;;13.41;100.00;102146.91;5006215;28;20803;-70
2023/05/21 05:50:43;;;;;;;4.97;2.20;;;;;;;13.41;100.00;102153.13;5004774;28;20196;-70
2023/05/21 05:53:08;;;;;;;5.63;2.93;;;;;;;13.10;100.00;102108.31;5001629;28;20196;-70
2023/05/21 05:55:34;;;;;;;6.07;2.93;;;;;;;13.08;100.00;102109.50;5003241;28;20469;-70
2023/05/21 05:57:59;;;;;;;5.57;2.50;;;;;;;13.00;100.00;102053.84;4995987;28;21088;-70
2023/05/21 06:00:25;;;;;;;7.20;2.73;;;;;;;13.20;100.00;102085.63;5008427;28;20189;-70
2023/05/21 06:02:50;;;;;;;5.10;2.33;;;;;;;12.94;100.00;102048.38;5003936;28;20262;-71
2023/05/21 06:05:16;;;;;;;6.60;2.03;;;;;;;13.45;100.00;102110.47;5001655;28;20203;-70
2023/05/21 06:07:41;;;;;;;3.27;2.60;;;;;;;13.39;100.00;102097.72;4999954;28;20910;-71
2023/05/21 06:10:07;;;;;;;6.97;2.87;;;;;;;13.68;100.00;102131.91;5002647;28;20189;-70
2023/05/21 06:12:32;;;;;;;5.77;2.40;;;;;;;13.51;100.00;102093.53;5001005;28;20385;-70
2023/05/21 06:14:58;;;;;;;3.30;2.33;;;;;;;13.28;100.00;102066.72;5001687;28;20850;-70
2023/05/21 06:17:24;;;;;;;4.20;2.33;;;;;;;13.66;100.00;102125.88;4999481;28;20212;-70
2023/05/21 06:19:49;;;;;;;5.33;2.30;;;;;;;13.52;100.00;102103.31;5002207;28;20281;-70
2023/05/21 06:22:15;;;;;;;2.90;1.73;;;;;;;13.30;100.00;102067.34;5004238;28;20190;-70
2023/05/21 06:24:40;;;;;;;3.70;2.37;;;;;;;13.63;100.00;102132.50;4999663;28;20285;-70
2023/05/21 06:27:06;;;;;;;3.53;2.03;;;;;;;13.58;100.00;102102.56;5001991;28;20176;-70
2023/05/21 06:29:31;;;;;;;4.47;1.80;;;;;;;13.44;100.00;102089.94;5002392;28;20654;-70
2023/05/21 06:31:56;;;;;;;3.53;1.80;;;;;;;13.81;100.00;102129.38;5002495;28;20193;-70
2023/05/21 06:34:22;;;;;;;3.13;2.30;;;;;;;13.85;100.00;102125.28;5003023;28;20221;-70
2023/05/21 06:36:47;;;;;;;4.10;2.60;;;;;;;13.71;100.00;102077.59;5002203;28;20188;-70
2023/05/21 06:39:13;;;;;;;3.53;2.03;;;;;;;13.60;100.00;102056.53;5002710;28;20300;-71
2023/05/21 06:41:38;;;;;;;4.87;2.60;;;;;;;14.07;100.00;102120.78;4999314;28;20672;-71
2023/05/21 06:44:04;;;;;;;3.60;2.13;;;;;;;14.10;100.00;102115.00;4998594;28;20220;-71
2023/05/21 06:46:30;;;;;;;3.73;2.20;;;;;;;14.10;100.00;102115.00;4998341;28;20574;-70
2023/05/21 06:48:55;;;;;;;2.97;2.07;;;;;;;13.69;100.00;102036.53;4997705;28;20530;-71
2023/05/21 06:51:21;;;;;;;4.80;2.30;;;;;;;14.08;100.00;102098.16;4998644;28;20188;-70
2023/05/21 06:53:47;;;;;;;3.80;2.10;;;;;;;13.59;100.00;101998.25;5000024;28;20224;-70
2023/05/21 06:56:12;;;;;;;3.70;2.40;;;;;;;14.22;100.00;102096.44;4999400;28;20221;-70
2023/05/21 06:58:37;;;;;;;3.83;2.20;;;;;;;14.07;100.00;102080.31;4999994;28;20185;-70
2023/05/21 07:01:03;;;;;;;3.73;2.20;;;;;;;14.31;100.00;102106.06;5000427;28;20197;-70
2023/05/21 07:03:28;;;;;;;3.80;2.23;;;;;;;14.39;100.00;102097.84;4996837;28;20237;-70
2023/05/21 07:05:54;;;;;;;4.30;2.63;;;;;;;13.98;100.00;102063.41;4993848;28;20232;-69
2023/05/21 07:08:19;;;;;;;2.80;2.10;;;;;;;14.31;100.00;102106.06;4996202;28;20252;-70
2023/05/21 07:10:45;;;;;;;7.10;2.43;;;;;;;13.88;100.00;102024.28;4995428;28;20200;-70
2023/05/21 07:13:11;;;;;;;3.00;1.97;;;;;;;14.06;100.00;102048.97;4999918;28;20196;-69
2023/05/21 07:15:36;;;;;;;2.83;2.30;;;;;;;13.83;100.00;102013.22;4998893;28;20312;-70
2023/05/21 07:18:02;;;;;;;3.10;1.60;;;;;;;14.23;100.00;102071.97;4998492;28;20934;-71
2023/05/21 07:20:28;;;;;;;3.70;2.23;;;;;;;13.98;100.00;102035.59;4998190;28;20185;-70
2023/05/21 07:22:54;;;;;;;2.40;1.93;;;;;;;14.37;100.00;102096.38;4988339;28;20228;-70
2023/05/21 07:25:19;;;;;;;3.60;1.93;;;;;;;14.07;100.00;102026.34;4989585;28;20205;-70
2023/05/21 07:27:45;;;;;;;4.13;2.00;;;;;;;14.31;100.00;102072.84;4996894;28;20653;-70
2023/05/21 07:30:10;;;;;;;3.20;2.20;;;;;;;14.40;100.00;102093.28;4998420;28;20269;-70
2023/05/21 07:32:36;;;;;;;4.20;2.00;;;;;;;14.39;100.00;102088.91;4991713;28;20185;-70
2023/05/21 07:35:01;;;;;;;3.40;2.40;;;;;;;14.20;100.00;102056.16;5000996;28;20216;-71
2023/05/21 07:37:27;;;;;;;5.10;2.00;;;;;;;13.90;100.00;101988.00;5001030;28;20200;-69
2023/05/21 07:39:55;;;;;;;3.37;2.40;;;;;;;14.64;100.00;102100.19;5001386;28;20184;-69
2023/05/21 07:42:21;;;;;;;4.43;2.00;;;;;;;14.10;100.00;102012.47;5003445;28;20196;-69
2023/05/21 07:44:46;;;;;;;3.00;2.20;;;;;;;14.32;100.00;102050.22;4997714;28;20464;-70
2023/05/21 07:47:11;;;;;;;3.33;2.10;;;;;;;14.72;100.00;102093.78;5000170;28;20568;-70
2023/05/21 07:49:37;;;;;;;7.33;1.97;;;;;;;14.01;100.00;101959.69;4997010;28;20185;-70
2023/05/21 07:52:02;;;;;;;3.20;1.93;;;;;;;14.81;100.00;102074.56;4991366;28;20573;-70
2023/05/21 07:54:28;;;;;;;3.20;2.03;;;;;;;14.66;100.00;102063.84;4994590;28;20708;-70
2023/05/21 07:56:53;;;;;;;3.20;2.17;;;;;;;14.25;100.00;102002.44;4992315;28;20189;-70
2023/05/21 07:59:19;;;;;;;3.60;2.17;;;;;;;14.74;100.00;102056.63;4991916;28;20193;-70
2023/05/21 08:01:45;;;;;;;3.23;2.10;;;;;;;14.54;100.00;102035.72;4997781;28;20237;-70
2023/05/21 08:04:11;;;;;;;3.83;2.23;;;;;;;14.99;100.00;102071.34;4994471;28;20217;-70
2023/05/21 08:06:36;;;;;;;3.23;2.23;;;;;;;14.56;100.00;102013.94;4992148;28;20820;-70
2023/05/21 08:09:03;;;;;;;4.27;2.33;;;;;;;14.52;100.00;101988.34;4995154;28;20440;-70
2023/05/21 08:11:28;;;;;;;5.87;2.30;;;;;;;14.85;100.00;102043.41;4998463;28;20347;-70
2023/05/21 08:13:55;;;;;;;4.33;2.20;;;;;;;14.91;100.00;102066.94;4990757;28;21051;-71
2023/05/21 08:16:22;;;;;;;4.10;2.07;;;;;;;14.51;100.00;101992.88;4996640;28;20591;-71
2023/05/21 08:18:48;;;;;;;4.27;2.50;;;;;;;14.44;100.00;101957.75;4998630;28;20508;-70
2023/05/21 08:21:13;;;;;;;2.97;1.87;;;;;;;15.21;100.00;102072.09;4993309;28;20444;-71
2023/05/21 08:23:39;;;;;;;2.97;2.03;;;;;;;15.01;100.00;102039.56;4994253;28;20456;-71
2023/05/21 08:26:05;;;;;;;3.87;2.00;;;;;;;14.71;100.00;101990.34;4987208;28;20927;-70
2023/05/21 08:28:31;;;;;;;5.20;2.40;;;;;;;14.96;100.00;102016.91;4989423;28;21018;-70
2023/05/21 08:30:57;;;;;;;2.63;2.03;;;;;;;14.53;100.00;101957.63;4998370;28;20653;-70
2023/05/21 08:33:22;;;;;;;2.57;1.90;;;;;;;15.28;100.00;102066.75;4990923;28;20225;-70
2023/05/21 08:35:48;;;;;;;5.93;2.40;;;;;;;15.25;100.00;102054.47;4989237;28;20260;-69
2023/05/21 08:38:15;;;;;;;3.40;2.50;;;;;;;14.77;100.00;101972.50;4991861;28;20759;-69
2023/05/21 08:40:41;;;;;;;4.00;2.43;;;;;;;15.31;100.00;102042.00;4995882;28;20653;-69
2023/05/21 08:43:11;;;;;;;4.90;2.53;;;;;;;15.10;100.00;102014.06;4997829;28;20459;-69
2023/05/21 08:45:41;;;;;;;4.10;2.37;;;;;;;14.89;100.00;101979.84;4996025;28;20944;-69
2023/05/21 08:48:09;;;;;;;2.60;2.00;;;;;;;15.05;100.00;101986.78;4999282;28;20437;-70
2023/05/21 08:50:34;;;;;;;6.57;2.40;;;;;;;15.19;100.00;101990.41;4994189;28;20441;-69
2023/05/21 08:53:00;;;;;;;5.93;2.23;;;;;;;15.62;100.00;102056.88;4996495;28;20505;-69
2023/05/21 08:55:26;;;;;;;5.47;2.00;;;;;;;15.68;100.00;102056.09;4999506;28;20625;-69
2023/05/21 08:57:53;;;;;;;4.40;2.80;;;;;;;15.55;100.00;102046.88;4994613;28;20448;-69
2023/05/21 09:00:23;;;;;;;3.20;2.17;;;;;;;15.19;100.00;101973.31;5000692;28;20806;-69
2023/05/21 09:02:49;;;;;;;6.10;1.97;;;;;;;15.17;100.00;101960.03;5002202;28;20428;-69
2023/05/21 09:05:15;;;;;;;3.33;2.37;;;;;;;15.58;100.00;102038.38;5000253;28;20539;-69
2023/05/21 09:07:51;;;;;;;4.80;2.60;;;;;;;15.80;100.00;102047.22;5001179;28;20515;-69
2023/05/21 09:10:22;;;;;;;5.20;2.70;;;;;;;15.38;100.00;101989.63;5003055;28;20460;-69
2023/05/21 09:12:48;;;;;;;4.10;2.50;;;;;;;15.13;100.00;101972.28;5004878;28;20513;-69
2023/05/21 09:15:13;;;;;;;4.40;2.60;;;;;;;15.71;100.00;102043.03;5003474;28;20487;-69
2023/05/21 09:17:39;;;;;;;4.80;2.50;;;;;;;15.78;100.00;102037.63;4995376;28;20239;-69
2023/05/21 09:20:09;;;;;;;5.53;2.60;;;;;;;15.26;100.00;101958.81;4998394;28;20186;-69
2023/05/21 09:22:40;;;;;;;3.60;2.77;;;;;;;15.82;100.00;102037.03;4996650;28;20181;-68
2023/05/21 09:25:09;;;;;;;4.67;2.57;;;;;;;15.52;100.00;101982.41;4996073;28;20577;-69
2023/05/21 09:27:35;;;;;;;5.03;2.80;;;;;;;15.90;100.00;102056.81;4994184;28;20443;-68
2023/05/21 09:30:02;;;;;;;7.80;3.10;;;;;;;15.48;100.00;101978.44;4993823;28;20443;-68
2023/05/21 09:32:27;;;;;;;3.37;2.67;;;;;;;15.46;100.00;101967.00;4996531;28;20500;-68
2023/05/21 09:34:53;;;;;;;6.03;2.80;;;;;;;15.71;100.00;101983.53;4994278;28;20472;-68
2023/05/21 09:37:19;;;;;;;5.03;2.90;;;;;;;15.50;100.00;101970.94;4997723;28;20667;-68
2023/05/21 09:39:46;;;;;;;2.93;2.20;;;;;;;15.48;100.00;101939.75;4997696;28;20658;-69
2023/05/21 09:42:12;;;;;;;4.07;2.43;;;;;;;16.04;100.00;102032.28;4997780;28;20208;-68
2023/05/21 09:44:37;;;;;;;6.63;2.90;;;;;;;16.01;100.00;102018.31;5000434;28;20507;-70
2023/05/21 09:47:03;;;;;;;5.13;3.30;;;;;;;16.14;100.00;102031.03;4986646;28;20870;-71
2023/05/21 09:49:30;;;;;;;3.00;2.60;;;;;;;16.16;100.00;102031.66;4988759;28;20233;-70
2023/05/21 09:51:56;;;;;;;4.47;3.00;;;;;;;16.17;100.00;102023.34;5002040;28;20196;-68
2023/05/21 09:54:23;;;;;;;5.13;3.10;;;;;;;16.11;100.00;102042.25;4997866;28;20518;-69
2023/05/21 09:56:50;;;;;;;3.77;2.90;;;;;;;15.70;100.00;101946.69;5005329;28;20999;-69
2023/05/21 09:59:16;;;;;;;3.60;2.70;;;;;;;15.85;100.00;101962.72;5000921;28;20798;-68
2023/05/21 10:01:42;;;;;;;3.73;2.83;;;;;;;16.14;100.00;101996.69;4999100;28;20447;-70
2023/05/21 10:04:08;;;;;;;4.00;2.90;;;;;;;15.92;100.00;101951.91;5007448;28;20495;-70
2023/05/21 10:06:40;;;;;;;4.87;3.40;;;;;;;15.77;100.00;101925.91;5003157;28;20435;-71
2023/05/21 10:09:10;;;;;;;6.00;3.00;;;;;;;16.01;100.00;101959.63;5004046;28;20503;-69
2023/05/21 10:11:36;;;;;;;4.60;2.73;;;;;;;16.45;100.00;101998.75;5001725;28;20523;-71
2023/05/21 10:14:08;;;;;;;5.20;3.40;;;;;;;16.63;100.00;102019.78;4994163;28;20502;-69
2023/05/21 10:16:35;;;;;;;7.30;3.53;;;;;;;16.21;100.00;101950.69;5001303;28;20790;-69
2023/05/21 10:19:01;;;;;;;6.20;3.90;;;;;;;15.94;100.00;101880.31;5001197;28;20444;-69
2023/05/21 10:21:27;;;;;;;4.57;3.50;;;;;;;16.33;100.00;101927.31;5002753;28;20478;-69
2023/05/21 10:23:56;;;;;;;5.03;3.00;;;;;;;16.86;100.00;101986.81;4997479;28;20526;-71
2023/05/21 10:26:23;;;;;;;7.63;4.50;;;;;;;16.60;100.00;101944.34;4995351;28;20568;-68
2023/05/21 10:28:50;;;;;;;5.67;3.30;;;;;;;16.96;100.00;101999.97;5001456;28;20444;-68
2023/05/21 10:31:15;;;;;;;8.10;4.30;;;;;;;16.78;100.00;101945.59;4996854;28;20445;-69
2023/05/21 10:33:42;;;;;;;4.27;3.17;;;;;;;16.68;100.00;101921.63;4998908;28;20472;-71
2023/05/21 10:36:07;;;;;;;5.47;4.10;;;;;;;16.60;100.00;101909.13;5002531;28;20190;-69
2023/05/21 10:38:35;;;;;;;6.90;3.57;;;;;;;16.75;100.00;101924.31;5000303;28;20450;-69
2023/05/21 10:41:03;;;;;;;6.23;4.20;;;;;;;16.37;100.00;101863.56;4998738;28;20212;-69
2023/05/21 10:43:44;;;;;;;6.33;4.20;;;;;;;17.17;100.00;101985.28;4987978;28;20899;-69
2023/05/21 10:46:47;;;;;;;8.87;4.57;;;;;;;16.90;100.00;101904.09;4983300;28;20475;-76
2023/05/21 10:49:40;;;;;;;6.13;4.30;;;;;;;17.38;100.00;101984.97;4969604;28;20449;-76
2023/05/21 10:52:43;;;;;;;6.10;4.53;;;;;;;17.46;100.00;101974.94;4995143;28;20440;-76
2023/05/21 10:55:36;;;;;;;6.30;4.00;;;;;;;17.06;100.00;101881.06;4999075;28;26809;-76
2023/05/21 10:58:28;;;;;;;5.43;4.40;;;;;;;17.65;100.00;101967.72;4999471;28;20451;-77
2023/05/21 11:00:54;;;;;;;5.27;4.10;;;;;;;17.79;100.00;101955.75;4993896;28;20451;-80
2023/05/21 11:03:21;;;;;;;6.10;3.90;;;;;;;16.96;100.00;101826.50;4998832;28;20443;-77
2023/05/21 11:05:52;;;;;;;7.53;5.10;;;;;;;17.39;100.00;101886.31;5002808;28;20463;-77
2023/05/21 11:08:25;;;;;;;5.93;4.50;;;;;;;17.90;100.00;101951.50;4998942;28;20528;-77
2023/05/21 11:10:56;;;;;;;5.80;4.03;;;;;;;17.93;100.00;101953.78;5000778;28;20563;-76
2023/05/21 11:13:23;;;;;;;6.27;5.40;;;;;;;17.31;100.00;101855.91;4989613;28;20925;-77
2023/05/21 11:15:57;;;;;;;6.03;5.23;;;;;;;18.03;100.00;101933.22;4979871;28;20451;-76